| time (UTC) | temp F | wind direction | speed MPH | gust MPH | rain 1hr in | rain 24hr in | rain mn in | humidity % | barometer mb |
| 20260906102014 | 72 | 203 | 0.0 | 0.0 | 0.00 | 1.66 | 0.95 | 61 | 984.0 |
| 20260906101514 | 72 | 270 | 0.0 | 0.0 | 0.00 | 1.66 | 0.95 | 61 | 984.0 |
| 20260906101014 | 72 | 270 | 0.0 | 0.0 | 0.00 | 1.66 | 0.95 | 61 | 984.0 |
| 20260906100514 | 72 | 270 | 0.0 | 0.0 | 0.00 | 1.66 | 0.95 | 61 | 984.0 |
| 20260906100014 | 72 | 270 | 0.0 | 0.0 | 0.00 | 1.66 | 0.95 | 61 | 984.0 |
| 20260906095514 | 72 | 180 | 0.0 | 0.0 | 0.00 | 1.66 | 0.95 | 61 | 983.0 |
| 20260906095014 | 72 | 180 | 0.0 | 0.0 | 0.00 | 1.66 | 0.95 | 61 | 983.0 |
| 20260906094514 | 72 | 180 | 0.0 | 0.0 | 0.00 | 1.66 | 0.95 | 61 | 983.0 |
| 20260906094014 | 72 | 203 | 0.0 | 0.0 | 0.00 | 1.66 | 0.95 | 61 | 984.0 |
| 20260906093014 | 72 | 225 | 0.0 | 0.0 | 0.00 | 1.66 | 0.95 | 61 | 984.0 |
| 20260906092514 | 72 | 203 | 0.0 | 0.0 | 0.00 | 1.66 | 0.95 | 61 | 983.0 |
| 20260906092014 | 72 | 203 | 0.0 | 0.0 | 0.00 | 1.66 | 0.95 | 61 | 983.0 |
| 20260906091014 | 72 | 203 | 0.0 | 0.0 | 0.00 | 1.66 | 0.95 | 61 | 983.0 |
| 20260906085514 | 73 | 315 | 0.0 | 0.0 | 0.00 | 1.66 | 0.95 | 61 | 983.0 |
| 20260906084514 | 73 | 315 | 0.0 | 0.0 | 0.00 | 1.66 | 0.95 | 61 | 983.0 |
| 20260906083514 | 73 | 293 | 0.0 | 0.0 | 0.00 | 1.66 | 0.95 | 61 | 984.0 |
| 20260906083014 | 73 | 293 | 0.0 | 0.0 | 0.00 | 1.66 | 0.95 | 61 | 984.0 |
| 20260906082514 | 73 | 293 | 0.0 | 0.0 | 0.00 | 1.66 | 0.95 | 61 | 984.0 |
| 20260906082014 | 73 | 338 | 0.0 | 0.0 | 0.00 | 1.66 | 0.95 | 61 | 984.0 |
| 20260906081514 | 73 | 338 | 0.0 | 0.0 | 0.00 | 1.66 | 0.95 | 61 | 984.0 |
| 20260906081014 | 73 | 338 | 0.0 | 0.0 | 0.00 | 1.66 | 0.95 | 61 | 984.0 |
| 20260906080014 | 73 | 315 | 0.0 | 0.0 | 0.00 | 1.66 | 0.95 | 60 | 984.0 |
| 20260906075514 | 73 | 315 | 0.0 | 0.0 | 0.00 | 1.66 | 0.95 | 60 | 984.0 |
| 20260906075014 | 73 | 338 | 0.0 | 0.0 | 0.00 | 1.66 | 0.95 | 60 | 984.0 |
| 20260906074514 | 73 | 338 | 0.0 | 0.0 | 0.00 | 1.66 | 0.95 | 60 | 984.0 |
| 20260906074014 | 73 | 338 | 0.0 | 0.0 | 0.00 | 1.66 | 0.95 | 61 | 983.0 |
| 20260906073014 | 73 | 338 | 0.0 | 0.0 | 0.12 | 1.66 | 0.95 | 60 | 983.0 |
| 20260906072514 | 73 | 338 | 0.0 | 0.0 | 0.16 | 1.66 | 0.95 | 60 | 983.0 |
| 20260906072014 | 73 | 338 | 0.0 | 0.0 | 0.33 | 1.66 | 0.95 | 60 | 983.0 |
| 20260906071514 | 73 | 338 | 0.0 | 0.0 | 0.45 | 1.66 | 0.95 | 60 | 983.0 |
| 20260906070514 | 73 | 338 | 0.0 | 0.0 | 0.62 | 1.66 | 0.95 | 60 | 984.0 |
| 20260906070014 | 73 | 338 | 0.0 | 0.0 | 0.87 | 1.66 | 0.95 | 60 | 984.0 |
| 20260906065514 | 73 | 338 | 0.0 | 0.0 | 0.95 | 1.66 | 0.95 | 60 | 984.0 |
| 20260906065014 | 73 | 338 | 0.0 | 0.0 | 0.95 | 1.66 | 0.95 | 60 | 984.0 |
| 20260906064514 | 74 | 338 | 0.0 | 0.0 | 0.95 | 1.66 | 0.95 | 60 | 984.0 |
| 20260906064014 | 74 | 338 | 0.0 | 0.0 | 0.95 | 1.66 | 0.95 | 60 | 985.0 |
| 20260906063514 | 74 | 338 | 0.0 | 0.0 | 0.95 | 1.66 | 0.95 | 59 | 985.0 |
| 20260906063014 | 74 | 338 | 0.0 | 2.0 | 0.83 | 1.54 | 0.83 | 59 | 985.0 |
| 20260906062514 | 73 | 23 | 0.0 | 2.0 | 0.79 | 1.50 | 0.79 | 58 | 985.0 |
| 20260906062014 | 73 | 248 | 0.0 | 0.0 | 0.62 | 1.33 | 0.62 | 58 | 985.0 |
| 20260906061514 | 73 | 248 | 0.0 | 0.0 | 0.50 | 1.21 | 0.50 | 58 | 985.0 |
| 20260906060014 | 73 | 338 | 0.0 | 9.0 | 0.08 | 0.79 | 0.08 | 58 | 985.0 |
| 20260906055514 | 73 | 23 | 6.0 | 9.0 | 0.00 | 0.71 | 0.00 | 59 | 984.0 |
| 20260906054514 | 73 | 180 | 0.0 | 0.0 | 0.00 | 0.71 | 0.00 | 55 | 984.0 |
| 20260906054014 | 73 | 180 | 0.0 | 0.0 | 0.00 | 0.71 | 0.00 | 55 | 984.0 |
| 20260906053014 | 73 | 180 | 0.0 | 0.0 | 0.00 | 0.71 | 0.00 | 55 | 984.0 |
| 20260906052514 | 73 | 180 | 0.0 | 0.0 | 0.00 | 0.71 | 0.00 | 54 | 984.0 |
| 20260906052014 | 73 | 203 | 0.0 | 0.0 | 0.00 | 0.71 | 0.00 | 54 | 984.0 |
| 20260906050514 | 73 | 203 | 0.0 | 0.0 | 0.00 | 0.71 | 0.00 | 54 | 984.0 |
| 20260906050014 | 73 | 203 | 0.0 | 0.0 | 0.00 | 0.71 | 0.00 | 54 | 984.0 |
| 20260906044514 | 73 | 203 | 0.0 | 0.0 | 0.00 | 0.71 | 0.00 | 53 | 984.0 |
| 20260906044014 | 73 | 203 | 0.0 | 0.0 | 0.00 | 0.71 | 0.00 | 53 | 984.0 |
| 20260906043514 | 73 | 203 | 0.0 | 0.0 | 0.00 | 0.71 | 0.00 | 53 | 984.0 |
| 20260906043014 | 73 | 203 | 0.0 | 0.0 | 0.00 | 0.71 | 0.00 | 53 | 984.0 |
| 20260906042514 | 73 | 203 | 0.0 | 0.0 | 0.00 | 0.71 | 0.00 | 53 | 984.0 |
| 20260906042014 | 73 | 203 | 0.0 | 0.0 | 0.00 | 0.71 | 0.00 | 52 | 984.0 |
| 20260906041514 | 73 | 203 | 0.0 | 0.0 | 0.00 | 0.71 | 0.00 | 52 | 984.0 |
| 20260906041014 | 73 | 203 | 0.0 | 0.0 | 0.00 | 0.71 | 0.00 | 52 | 984.0 |
| 20260906040514 | 74 | 180 | 0.0 | 0.0 | 0.00 | 0.71 | 0.00 | 52 | 984.0 |
| 20260906040014 | 74 | 158 | 0.0 | 0.0 | 0.00 | 0.71 | 0.00 | 52 | 984.0 |
| 20260906035514 | 74 | 158 | 0.0 | 0.0 | 0.00 | 0.71 | 0.71 | 52 | 984.0 |
| 20260906035014 | 74 | 158 | 0.0 | 0.0 | 0.00 | 0.71 | 0.71 | 52 | 984.0 |
| 20260906034514 | 74 | 158 | 0.0 | 0.0 | 0.00 | 0.71 | 0.71 | 52 | 984.0 |
| 20260906034014 | 74 | 158 | 0.0 | 0.0 | 0.00 | 0.71 | 0.71 | 52 | 984.0 |
| 20260906033514 | 74 | 158 | 0.0 | 0.0 | 0.00 | 0.71 | 0.71 | 52 | 984.0 |
| 20260906032014 | 74 | 158 | 0.0 | 0.0 | 0.00 | 0.71 | 0.71 | 51 | 984.0 |
| 20260906031514 | 74 | 158 | 0.0 | 0.0 | 0.00 | 0.71 | 0.71 | 51 | 984.0 |
| 20260906031014 | 74 | 158 | 0.0 | 0.0 | 0.00 | 0.71 | 0.71 | 51 | 984.0 |
| 20260906030514 | 74 | 158 | 0.0 | 0.0 | 0.00 | 0.71 | 0.71 | 51 | 984.0 |
| 20260906030014 | 74 | 158 | 0.0 | 0.0 | 0.00 | 0.71 | 0.71 | 51 | 984.0 |
| 20260906025514 | 75 | 158 | 0.0 | 0.0 | 0.00 | 0.71 | 0.71 | 51 | 984.0 |
| 20260906025014 | 75 | 158 | 0.0 | 0.0 | 0.00 | 0.71 | 0.71 | 51 | 984.0 |
| 20260906024514 | 75 | 158 | 0.0 | 0.0 | 0.00 | 0.71 | 0.71 | 50 | 984.0 |
| 20260906024014 | 75 | 158 | 0.0 | 0.0 | 0.00 | 0.71 | 0.71 | 50 | 984.0 |
| 20260906023514 | 75 | 158 | 0.0 | 0.0 | 0.00 | 0.71 | 0.71 | 50 | 984.0 |
| 20260906022514 | 75 | 158 | 0.0 | 0.0 | 0.00 | 0.71 | 0.71 | 50 | 984.0 |
| 20260906022014 | 75 | 158 | 0.0 | 0.0 | 0.00 | 0.71 | 0.71 | 50 | 984.0 |
| 20260906021014 | 75 | 158 | 0.0 | 0.0 | 0.00 | 0.71 | 0.71 | 49 | 984.0 |
| 20260906020514 | 75 | 158 | 0.0 | 0.0 | 0.00 | 0.71 | 0.71 | 49 | 984.0 |
| 20260906020014 | 75 | 158 | 0.0 | 0.0 | 0.00 | 0.71 | 0.71 | 49 | 984.0 |
| 20260906015514 | 75 | 158 | 0.0 | 0.0 | 0.00 | 0.71 | 0.71 | 48 | 984.0 |
| 20260906015014 | 75 | 158 | 0.0 | 0.0 | 0.00 | 0.71 | 0.71 | 48 | 984.0 |
| 20260906014514 | 75 | 158 | 0.0 | 0.0 | 0.00 | 0.71 | 0.71 | 48 | 984.0 |
| 20260906014014 | 75 | 158 | 0.0 | 0.0 | 0.00 | 0.71 | 0.71 | 47 | 984.0 |
| 20260906013514 | 76 | 158 | 0.0 | 0.0 | 0.00 | 0.71 | 0.71 | 47 | 984.0 |
| 20260906013014 | 76 | 158 | 0.0 | 0.0 | 0.00 | 0.71 | 0.71 | 47 | 983.0 |
| 20260906012014 | 76 | 158 | 0.0 | 0.0 | 0.00 | 0.71 | 0.71 | 47 | 983.0 |
| 20260906011514 | 76 | 158 | 0.0 | 0.0 | 0.00 | 0.71 | 0.71 | 47 | 983.0 |
| 20260906010514 | 76 | 158 | 0.0 | 0.0 | 0.00 | 0.71 | 0.71 | 47 | 984.0 |
| 20260906005514 | 77 | 158 | 0.0 | 0.0 | 0.00 | 0.71 | 0.71 | 46 | 983.0 |
| 20260906005014 | 77 | 158 | 0.0 | 0.0 | 0.00 | 0.71 | 0.71 | 46 | 983.0 |
| 20260906004514 | 77 | 158 | 0.0 | 0.0 | 0.00 | 0.71 | 0.71 | 46 | 983.0 |
| 20260906003514 | 77 | 158 | 0.0 | 0.0 | 0.00 | 0.71 | 0.71 | 45 | 983.0 |
| 20260906003014 | 77 | 158 | 0.0 | 0.0 | 0.00 | 0.71 | 0.71 | 45 | 983.0 |
| 20260906002014 | 77 | 158 | 0.0 | 0.0 | 0.00 | 0.71 | 0.71 | 45 | 983.0 |
| 20260906001514 | 78 | 158 | 0.0 | 0.0 | 0.00 | 0.71 | 0.71 | 45 | 983.0 |
| 20260906001014 | 78 | 158 | 0.0 | 0.0 | 0.00 | 0.71 | 0.71 | 45 | 983.0 |
| 20260906000014 | 78 | 158 | 0.0 | 0.0 | 0.00 | 0.71 | 0.71 | 44 | 983.0 |
| 20260905235514 | 78 | 158 | 0.0 | 0.0 | 0.00 | 0.71 | 0.71 | 44 | 983.0 |
| 20260905235014 | 78 | 203 | 0.0 | 0.0 | 0.00 | 0.71 | 0.71 | 44 | 983.0 |
| 20260905234514 | 78 | 203 | 0.0 | 0.0 | 0.00 | 0.71 | 0.71 | 44 | 983.0 |
| 20260905234014 | 78 | 203 | 0.0 | 0.0 | 0.00 | 0.71 | 0.71 | 44 | 983.0 |
| 20260905232514 | 79 | 203 | 0.0 | 0.0 | 0.00 | 0.71 | 0.71 | 43 | 983.0 |
| 20260905232014 | 79 | 203 | 0.0 | 0.0 | 0.00 | 0.71 | 0.71 | 43 | 983.0 |
| 20260905231514 | 79 | 203 | 0.0 | 0.0 | 0.00 | 0.71 | 0.71 | 42 | 983.0 |
| 20260905231014 | 79 | 203 | 0.0 | 0.0 | 0.00 | 0.71 | 0.71 | 42 | 983.0 |
| 20260905230514 | 79 | 203 | 0.0 | 0.0 | 0.00 | 0.71 | 0.71 | 42 | 983.0 |
| 20260905230014 | 79 | 203 | 0.0 | 0.0 | 0.00 | 0.71 | 0.71 | 42 | 983.0 |
| 20260905225514 | 79 | 203 | 0.0 | 0.0 | 0.00 | 0.71 | 0.71 | 42 | 983.0 |
| 20260905224514 | 80 | 203 | 0.0 | 0.0 | 0.00 | 0.71 | 0.71 | 42 | 983.0 |
| 20260905224014 | 80 | 203 | 0.0 | 0.0 | 0.00 | 0.71 | 0.71 | 41 | 983.0 |
| 20260905223514 | 80 | 180 | 0.0 | 0.0 | 0.00 | 0.71 | 0.71 | 41 | 983.0 |
| 20260905223014 | 80 | 180 | 0.0 | 0.0 | 0.00 | 0.71 | 0.71 | 40 | 983.0 |
| 20260905222514 | 80 | 225 | 0.0 | 0.0 | 0.00 | 0.71 | 0.71 | 40 | 983.0 |
| 20260905222014 | 81 | 203 | 0.0 | 0.0 | 0.00 | 0.71 | 0.71 | 39 | 983.0 |
| 20260905221514 | 81 | 203 | 0.0 | 0.0 | 0.00 | 0.71 | 0.71 | 39 | 983.0 |
| 20260905221014 | 81 | 203 | 0.0 | 0.0 | 0.00 | 0.71 | 0.71 | 39 | 983.0 |
| 20260905220014 | 81 | 203 | 0.0 | 0.0 | 0.00 | 0.71 | 0.71 | 37 | 983.0 |
| 20260905215514 | 81 | 203 | 0.0 | 0.0 | 0.00 | 0.71 | 0.71 | 37 | 983.0 |
| 20260905214514 | 81 | 203 | 0.0 | 0.0 | 0.00 | 0.71 | 0.71 | 36 | 983.0 |
| 20260905214014 | 82 | 203 | 0.0 | 1.0 | 0.00 | 0.71 | 0.71 | 35 | 983.0 |
| 20260905213514 | 82 | 225 | 0.0 | 1.0 | 0.00 | 0.71 | 0.71 | 35 | 983.0 |
| 20260905213014 | 82 | 203 | 0.0 | 0.0 | 0.00 | 0.71 | 0.71 | 35 | 983.0 |
| 20260905212514 | 82 | 338 | 0.0 | 0.0 | 0.00 | 0.71 | 0.71 | 35 | 982.0 |
| 20260905211514 | 83 | 248 | 0.0 | 0.0 | 0.00 | 0.71 | 0.71 | 34 | 982.0 |
| 20260905211014 | 83 | 248 | 0.0 | 0.0 | 0.00 | 0.71 | 0.71 | 33 | 982.0 |
| 20260905210514 | 83 | 248 | 0.0 | 0.0 | 0.00 | 0.71 | 0.71 | 33 | 982.0 |
| 20260905210014 | 84 | 248 | 0.0 | 1.0 | 0.00 | 0.71 | 0.71 | 33 | 982.0 |
| 20260905205514 | 84 | 338 | 0.0 | 1.0 | 0.00 | 0.71 | 0.71 | 33 | 982.0 |
| 20260905204014 | 84 | 180 | 0.0 | 2.0 | 0.00 | 0.71 | 0.71 | 32 | 982.0 |
| 20260905203514 | 84 | 180 | 0.0 | 1.0 | 0.00 | 0.71 | 0.71 | 32 | 982.0 |
| 20260905203014 | 85 | 23 | 0.0 | 1.0 | 0.00 | 0.71 | 0.71 | 32 | 982.0 |
| 20260905202014 | 85 | 225 | 0.0 | 3.0 | 0.00 | 0.71 | 0.71 | 32 | 982.0 |
| 20260905201514 | 85 | 23 | 0.0 | 3.0 | 0.00 | 0.71 | 0.71 | 32 | 982.0 |
| 20260905201014 | 85 | 270 | 0.0 | 0.0 | 0.00 | 0.71 | 0.71 | 32 | 983.0 |
| 20260905200514 | 85 | 293 | 0.0 | 0.0 | 0.00 | 0.71 | 0.71 | 33 | 983.0 |
| 20260905200014 | 84 | 315 | 0.0 | 0.0 | 0.00 | 0.71 | 0.71 | 33 | 983.0 |
| 20260905195514 | 84 | 315 | 0.0 | 1.0 | 0.00 | 0.71 | 0.71 | 33 | 983.0 |
| 20260905195014 | 84 | 23 | 0.0 | 1.0 | 0.00 | 0.71 | 0.71 | 34 | 983.0 |
| 20260905194514 | 84 | 0 | 0.0 | 2.0 | 0.00 | 0.71 | 0.71 | 34 | 983.0 |
| 20260905193514 | 84 | 338 | 0.0 | 1.0 | 0.00 | 0.71 | 0.71 | 36 | 983.0 |
| 20260905193014 | 84 | 23 | 1.0 | 2.0 | 0.00 | 0.71 | 0.71 | 38 | 984.0 |
| 20260905192514 | 84 | 23 | 0.0 | 2.0 | 0.00 | 0.71 | 0.71 | 38 | 984.0 |
| 20260905192015 | 84 | 225 | 2.0 | 2.0 | 0.00 | 0.71 | 0.71 | 38 | 984.0 |
| 20260905191514 | 84 | 248 | 0.0 | 0.0 | 0.00 | 0.71 | 0.71 | 39 | 984.0 |
| 20260905191014 | 84 | 248 | 0.0 | 3.0 | 0.00 | 0.71 | 0.71 | 39 | 984.0 |
| 20260905190514 | 84 | 270 | 0.0 | 3.0 | 0.00 | 0.71 | 0.71 | 39 | 984.0 |
| 20260905190014 | 84 | 180 | 0.0 | 3.0 | 0.00 | 0.71 | 0.71 | 38 | 984.0 |
| 20260905185514 | 84 | 338 | 0.0 | 3.0 | 0.00 | 0.71 | 0.71 | 38 | 984.0 |
| 20260905185014 | 84 | 338 | 0.0 | 0.0 | 0.00 | 0.71 | 0.71 | 41 | 984.0 |
| 20260905184514 | 84 | 338 | 0.0 | 0.0 | 0.00 | 0.71 | 0.71 | 38 | 984.0 |
| 20260905184014 | 84 | 0 | 0.0 | 0.0 | 0.00 | 0.71 | 0.71 | 41 | 985.0 |
| 20260905183514 | 83 | 315 | 0.0 | 0.0 | 0.00 | 0.71 | 0.71 | 41 | 985.0 |
| 20260905183014 | 83 | 338 | 0.0 | 0.0 | 0.00 | 0.71 | 0.71 | 40 | 985.0 |
| 20260905182514 | 83 | 248 | 0.0 | 3.0 | 0.00 | 0.71 | 0.71 | 39 | 985.0 |
| 20260905182014 | 83 | 203 | 0.0 | 3.0 | 0.00 | 0.71 | 0.71 | 40 | 985.0 |
| 20260905181514 | 82 | 248 | 3.0 | 3.0 | 0.00 | 0.71 | 0.71 | 43 | 985.0 |
| 20260905181014 | 82 | 225 | 0.0 | 0.0 | 0.00 | 0.71 | 0.71 | 42 | 985.0 |
| 20260905180514 | 82 | 203 | 0.0 | 0.0 | 0.00 | 0.71 | 0.71 | 43 | 985.0 |
| 20260905180014 | 81 | 158 | 0.0 | 0.0 | 0.00 | 0.71 | 0.71 | 44 | 985.0 |
| 20260905175514 | 81 | 180 | 0.0 | 1.0 | 0.00 | 0.71 | 0.71 | 44 | 985.0 |
| 20260905175014 | 80 | 248 | 0.0 | 1.0 | 0.00 | 0.71 | 0.71 | 46 | 985.0 |
| 20260905174514 | 80 | 225 | 0.0 | 0.0 | 0.00 | 0.71 | 0.71 | 46 | 985.0 |
| 20260905174014 | 79 | 203 | 0.0 | 0.0 | 0.00 | 0.71 | 0.71 | 47 | 985.0 |
| 20260905173514 | 79 | 225 | 0.0 | 0.0 | 0.00 | 0.71 | 0.71 | 48 | 985.0 |
| 20260905173015 | 78 | 203 | 0.0 | 0.0 | 0.00 | 0.71 | 0.71 | 50 | 985.0 |
| 20260905172514 | 78 | 158 | 0.0 | 0.0 | 0.00 | 0.71 | 0.71 | 51 | 985.0 |
| 20260905172014 | 78 | 203 | 0.0 | 0.0 | 0.00 | 0.71 | 0.71 | 51 | 985.0 |
| 20260905171514 | 78 | 203 | 0.0 | 5.0 | 0.00 | 0.71 | 0.71 | 53 | 985.0 |
| 20260905170514 | 77 | 180 | 0.0 | 1.0 | 0.00 | 0.71 | 0.71 | 59 | 985.0 |
| 20260905170014 | 76 | 203 | 0.0 | 1.0 | 0.00 | 0.71 | 0.71 | 61 | 985.0 |
| 20260905165514 | 76 | 225 | 1.0 | 1.0 | 0.00 | 0.71 | 0.71 | 61 | 986.0 |
| 20260905165014 | 76 | 225 | 0.0 | 3.0 | 0.00 | 0.71 | 0.71 | 62 | 986.0 |
| 20260905164014 | 75 | 203 | 0.0 | 0.0 | 0.00 | 0.71 | 0.71 | 63 | 986.0 |
| 20260905163514 | 75 | 203 | 0.0 | 0.0 | 0.00 | 0.71 | 0.71 | 63 | 986.0 |
| 20260905162514 | 74 | 203 | 0.0 | 0.0 | 0.00 | 0.71 | 0.71 | 63 | 987.0 |
| 20260905162014 | 74 | 180 | 0.0 | 0.0 | 0.00 | 0.71 | 0.71 | 63 | 987.0 |
| 20260905161515 | 74 | 180 | 0.0 | 0.0 | 0.00 | 0.71 | 0.71 | 62 | 987.0 |
| 20260905161014 | 73 | 180 | 0.0 | 0.0 | 0.00 | 0.71 | 0.71 | 62 | 987.0 |
| 20260905160514 | 73 | 23 | 0.0 | 0.0 | 0.00 | 0.71 | 0.71 | 62 | 987.0 |
| 20260905160014 | 73 | 203 | 0.0 | 0.0 | 0.00 | 0.71 | 0.71 | 62 | 987.0 |
| 20260905155514 | 73 | 203 | 0.0 | 0.0 | 0.04 | 0.71 | 0.71 | 61 | 987.0 |
| 20260905155014 | 73 | 203 | 0.0 | 3.0 | 0.04 | 0.71 | 0.71 | 61 | 987.0 |
| 20260905154015 | 72 | 180 | 0.0 | 0.0 | 0.04 | 0.71 | 0.71 | 61 | 987.0 |
| 20260905153514 | 73 | 203 | 0.0 | 0.0 | 0.09 | 0.71 | 0.71 | 61 | 987.0 |
| 20260905153014 | 72 | 203 | 0.0 | 0.0 | 0.09 | 0.71 | 0.71 | 61 | 987.0 |
| 20260905152514 | 72 | 203 | 0.0 | 0.0 | 0.09 | 0.71 | 0.71 | 60 | 988.0 |
| 20260905152014 | 73 | 203 | 0.0 | 0.0 | 0.09 | 0.71 | 0.71 | 60 | 988.0 |
| 20260905151514 | 73 | 203 | 0.0 | 0.0 | 0.09 | 0.71 | 0.71 | 60 | 988.0 |
| 20260905151014 | 73 | 225 | 0.0 | 0.0 | 0.09 | 0.71 | 0.71 | 60 | 989.0 |
| 20260905150514 | 73 | 225 | 0.0 | 0.0 | 0.09 | 0.71 | 0.71 | 60 | 989.0 |
| 20260905150014 | 73 | 225 | 0.0 | 0.0 | 0.33 | 0.71 | 0.71 | 59 | 989.0 |
| 20260905145514 | 73 | 338 | 0.0 | 0.0 | 0.67 | 0.67 | 0.67 | 59 | 989.0 |
| 20260905145014 | 73 | 338 | 0.0 | 0.0 | 0.67 | 0.67 | 0.67 | 59 | 989.0 |
| 20260905144514 | 73 | 338 | 0.0 | 0.0 | 0.67 | 0.67 | 0.67 | 59 | 989.0 |
| 20260905144014 | 73 | 203 | 0.0 | 0.0 | 0.67 | 0.67 | 0.67 | 59 | 988.0 |
| 20260905143514 | 73 | 293 | 0.0 | 0.0 | 0.62 | 0.62 | 0.62 | 59 | 988.0 |
| 20260905143014 | 73 | 158 | 0.0 | 3.0 | 0.62 | 0.62 | 0.62 | 58 | 988.0 |
| 20260905142514 | 74 | 0 | 0.0 | 3.0 | 0.62 | 0.62 | 0.62 | 58 | 988.0 |
| 20260905142014 | 74 | 338 | 3.0 | 5.0 | 0.62 | 0.62 | 0.62 | 59 | 988.0 |
| 20260905141514 | 74 | 23 | 3.0 | 11.0 | 0.62 | 0.62 | 0.62 | 60 | 988.0 |
| 20260905141014 | 74 | 0 | 2.0 | 11.0 | 0.62 | 0.62 | 0.62 | 59 | 988.0 |
| 20260905140514 | 74 | 45 | 11.0 | 13.0 | 0.62 | 0.62 | 0.62 | 60 | 988.0 |
| 20260905140014 | 75 | 45 | 11.0 | 13.0 | 0.38 | 0.38 | 0.38 | 58 | 988.0 |
| 20260905135514 | 77 | 23 | 4.0 | 20.0 | 0.00 | 0.00 | 0.00 | 48 | 986.0 |
| 20260905134514 | 76 | 338 | 20.0 | 20.0 | 0.00 | 0.00 | 0.00 | 48 | 986.0 |
| 20260905133514 | 74 | 203 | 0.0 | 0.0 | 0.00 | 0.00 | 0.00 | 59 | 986.0 |
| 20260905133014 | 74 | 338 | 0.0 | 0.0 | 0.00 | 0.00 | 0.00 | 58 | 986.0 |
| 20260905132514 | 74 | 338 | 0.0 | 0.0 | 0.00 | 0.00 | 0.00 | 58 | 986.0 |
| 20260905132014 | 73 | 338 | 0.0 | 0.0 | 0.00 | 0.00 | 0.00 | 58 | 986.0 |
| 20260905130514 | 72 | 338 | 0.0 | 0.0 | 0.00 | 0.00 | 0.00 | 56 | 986.0 |
| 20260905130014 | 72 | 338 | 0.0 | 0.0 | 0.00 | 0.00 | 0.00 | 56 | 986.0 |
| 20260905125514 | 72 | 338 | 0.0 | 0.0 | 0.00 | 0.00 | 0.00 | 56 | 986.0 |
| 20260905125014 | 72 | 338 | 0.0 | 0.0 | 0.00 | 0.00 | 0.00 | 55 | 986.0 |
| 20260905124514 | 71 | 338 | 0.0 | 0.0 | 0.00 | 0.00 | 0.00 | 55 | 986.0 |
| 20260905124014 | 71 | 203 | 0.0 | 0.0 | 0.00 | 0.00 | 0.00 | 55 | 986.0 |
| 20260905123514 | 71 | 203 | 0.0 | 0.0 | 0.00 | 0.00 | 0.00 | 54 | 986.0 |
| 20260905123014 | 71 | 293 | 0.0 | 0.0 | 0.00 | 0.00 | 0.00 | 54 | 986.0 |
| 20260905122514 | 71 | 293 | 0.0 | 0.0 | 0.00 | 0.00 | 0.00 | 54 | 986.0 |
| 20260905121515 | 71 | 270 | 0.0 | 0.0 | 0.00 | 0.00 | 0.00 | 53 | 986.0 |
| 20260905121015 | 71 | 270 | 0.0 | 0.0 | 0.00 | 0.00 | 0.00 | 52 | 986.0 |
| 20260905120514 | 71 | 270 | 0.0 | 0.0 | 0.00 | 0.00 | 0.00 | 52 | 986.0 |
| 20260905120014 | 70 | 270 | 0.0 | 0.0 | 0.00 | 0.00 | 0.00 | 52 | 986.0 |
| 20260905114514 | 70 | 270 | 0.0 | 0.0 | 0.00 | 0.00 | 0.00 | 51 | 986.0 |
| 20260905113514 | 70 | 203 | 0.0 | 0.0 | 0.00 | 0.00 | 0.00 | 51 | 986.0 |
| 20260905112514 | 70 | 203 | 0.0 | 0.0 | 0.00 | 0.00 | 0.00 | 50 | 985.0 |
| 20260905112015 | 70 | 338 | 0.0 | 0.0 | 0.00 | 0.00 | 0.00 | 50 | 985.0 |
| 20260905111514 | 70 | 338 | 0.0 | 0.0 | 0.00 | 0.00 | 0.00 | 50 | 985.0 |
| 20260905111014 | 70 | 338 | 0.0 | 0.0 | 0.00 | 0.00 | 0.00 | 51 | 985.0 |
| 20260905110515 | 70 | 338 | 0.0 | 0.0 | 0.00 | 0.00 | 0.00 | 51 | 985.0 |
| 20260905110015 | 70 | 338 | 0.0 | 0.0 | 0.00 | 0.00 | 0.00 | 50 | 985.0 |
| 20260905105514 | 70 | 338 | 0.0 | 0.0 | 0.00 | 0.00 | 0.00 | 50 | 985.0 |
| 20260905105014 | 71 | 338 | 0.0 | 0.0 | 0.00 | 0.00 | 0.00 | 50 | 985.0 |
| 20260905104515 | 71 | 338 | 0.0 | 0.0 | 0.00 | 0.00 | 0.00 | 50 | 985.0 |
| 20260905104014 | 71 | 293 | 0.0 | 0.0 | 0.00 | 0.00 | 0.00 | 50 | 985.0 |
| 20260905103014 | 71 | 203 | 0.0 | 0.0 | 0.00 | 0.00 | 0.00 | 49 | 985.0 |
| 20260905102514 | 71 | 158 | 0.0 | 0.0 | 0.00 | 0.00 | 0.00 | 49 | 985.0 |